createdAt,value
2017-09-08T00:01:55.922Z,18.10
2017-09-08T00:04:29.413Z,18.00
2017-09-08T00:16:07.378Z,17.90
2017-09-08T00:18:45.608Z,17.70
2017-09-08T01:12:40.171Z,16.90
2017-09-08T01:15:13.155Z,16.80
2017-09-08T01:17:56.461Z,16.80
2017-09-08T01:20:29.953Z,16.70
2017-09-08T01:23:02.132Z,16.60
2017-09-08T01:25:33.535Z,16.50
2017-09-08T01:37:12.646Z,16.40
2017-09-08T01:39:46.299Z,16.50
2017-09-08T01:45:26.625Z,16.60
2017-09-08T01:47:57.500Z,16.70
2017-09-08T01:50:28.439Z,16.70
2017-09-08T02:02:38.786Z,16.80
2017-09-08T02:05:09.453Z,17.00
2017-09-08T02:07:43.776Z,17.00
2017-09-08T02:12:48.009Z,17.10
2017-09-08T02:15:24.085Z,17.20
2017-09-08T02:17:58.901Z,17.20
2017-09-08T02:20:32.243Z,17.30
2017-09-08T02:23:03.939Z,17.30
2017-09-08T02:25:33.897Z,17.20
2017-09-08T02:58:19.434Z,16.90
2017-09-08T03:00:49.305Z,17.00
2017-09-08T03:16:11.946Z,17.00
2017-09-08T03:18:44.427Z,16.90
2017-09-08T03:35:55.052Z,17.10
2017-09-08T03:48:06.425Z,17.00
2017-09-08T03:50:36.398Z,17.10
2017-09-08T03:56:12.712Z,17.10
2017-09-08T03:58:43.718Z,17.10
2017-09-08T04:01:19.013Z,17.10
2017-09-08T04:12:35.699Z,17.10
2017-09-08T04:15:07.541Z,17.10
2017-09-08T04:27:18.286Z,17.00
2017-09-08T04:40:29.948Z,16.90
2017-09-08T04:42:59.555Z,16.90
2017-09-08T04:48:32.612Z,16.90
2017-09-08T04:51:05.335Z,16.90
2017-09-08T04:53:34.587Z,16.90
2017-09-08T04:59:18.940Z,16.90
2017-09-08T05:05:08.231Z,16.80
2017-09-08T05:07:52.316Z,16.80
2017-09-08T05:11:58.255Z,16.80
2017-09-08T05:20:30.170Z,16.80
2017-09-08T05:22:59.181Z,16.80
2017-09-08T05:35:14.870Z,16.90
2017-09-08T05:41:06.574Z,16.80
2017-09-08T05:43:40.939Z,16.90
2017-09-08T05:52:20.714Z,17.00
2017-09-08T05:54:56.176Z,17.00
2017-09-08T05:57:25.901Z,17.10
2017-09-08T05:59:59.082Z,17.10
2017-09-08T06:02:31.476Z,17.20
2017-09-08T06:04:59.588Z,17.20
2017-09-08T06:07:30.089Z,17.20
2017-09-08T06:09:59.510Z,17.30
2017-09-08T06:12:28.502Z,17.30
2017-09-08T06:14:58.198Z,17.40
2017-09-08T06:17:27.360Z,17.40
2017-09-08T06:20:01.103Z,17.50
2017-09-08T06:22:30.934Z,17.50
2017-09-08T06:25:00.315Z,17.50
2017-09-08T06:27:28.859Z,17.60
2017-09-08T06:29:58.185Z,17.60
2017-09-08T06:32:28.072Z,17.60
2017-09-08T06:34:57.336Z,17.70
2017-09-08T06:37:26.480Z,17.70
2017-09-08T06:39:54.984Z,17.70
2017-09-08T06:42:24.207Z,17.70
2017-09-08T06:44:52.426Z,17.80
2017-09-08T06:47:20.032Z,17.80
2017-09-08T06:58:38.985Z,17.90
2017-09-08T07:10:53.982Z,18.00
2017-09-08T07:24:02.807Z,18.20
2017-09-08T07:26:33.169Z,18.30
2017-09-08T07:29:03.781Z,18.40
2017-09-08T07:31:35.331Z,18.40
2017-09-08T07:37:11.195Z,18.60
2017-09-08T07:39:40.403Z,18.60
2017-09-08T07:51:55.934Z,18.70
2017-09-08T07:54:30.365Z,18.90
2017-09-08T07:57:01.351Z,18.90
2017-09-08T07:59:32.140Z,19.00
2017-09-08T08:02:03.371Z,19.00
2017-09-08T08:04:39.262Z,19.10
2017-09-08T08:09:44.741Z,19.20
2017-09-08T08:12:15.505Z,19.20
2017-09-08T08:14:45.220Z,19.30
2017-09-08T08:29:35.523Z,19.40
2017-09-08T08:32:04.540Z,19.50
2017-09-08T09:29:27.043Z,20.80
2017-09-08T09:31:56.232Z,20.80
2017-09-08T09:34:26.114Z,20.90
2017-09-08T09:36:54.970Z,20.90
2017-09-08T09:39:26.105Z,21.00
2017-09-08T09:41:55.104Z,21.00
2017-09-08T09:44:25.396Z,21.10
2017-09-08T09:46:55.895Z,21.20
2017-09-08T09:49:28.177Z,21.20
2017-09-08T09:51:59.774Z,21.30
2017-09-08T09:54:28.238Z,21.30
2017-09-08T09:56:57.337Z,21.40
2017-09-08T09:59:25.805Z,21.50
2017-09-08T10:01:55.127Z,21.50
2017-09-08T10:04:23.359Z,21.60
2017-09-08T10:06:52.752Z,21.60
2017-09-08T10:09:21.848Z,21.60
2017-09-08T10:11:52.422Z,21.70
2017-09-08T10:14:21.908Z,21.70
2017-09-08T10:16:57.604Z,21.80
2017-09-08T10:19:26.940Z,21.80
2017-09-08T10:21:56.375Z,21.90
2017-09-08T10:24:25.764Z,22.00
2017-09-08T10:26:56.012Z,22.00
2017-09-08T10:29:24.860Z,22.00
2017-09-08T10:31:54.557Z,22.00
2017-09-08T10:34:23.713Z,22.10
2017-09-08T10:36:51.493Z,22.10
2017-09-08T10:39:21.457Z,22.10
2017-09-08T10:41:50.802Z,22.20
2017-09-08T10:44:21.083Z,22.30
2017-09-08T10:46:51.106Z,22.30
2017-09-08T10:49:20.141Z,22.40
2017-09-08T10:51:49.472Z,22.40
2017-09-08T10:54:19.047Z,22.40
2017-09-08T10:56:49.319Z,22.50
2017-09-08T10:59:18.600Z,22.50
2017-09-08T11:01:47.922Z,22.60
2017-09-08T11:04:16.842Z,22.70
2017-09-08T11:06:46.654Z,22.70
2017-09-08T11:09:15.810Z,22.80
2017-09-08T11:11:45.130Z,22.80
2017-09-08T11:14:13.749Z,22.90
2017-09-08T11:16:42.229Z,23.00
2017-09-08T11:19:11.658Z,23.00
2017-09-08T11:21:41.616Z,23.10
2017-09-08T11:24:11.213Z,23.20
2017-09-08T11:26:39.981Z,23.20
2017-09-08T11:29:08.611Z,23.30
2017-09-08T11:31:37.459Z,23.40
2017-09-08T11:34:12.254Z,23.50
2017-09-08T11:36:46.953Z,23.50
2017-09-08T11:39:16.081Z,23.50
2017-09-08T11:41:44.782Z,23.60
2017-09-08T11:44:14.287Z,23.70
2017-09-08T11:46:43.620Z,23.70
2017-09-08T11:49:14.029Z,23.80
2017-09-08T11:51:42.682Z,23.80
2017-09-08T11:54:11.711Z,23.80
2017-09-08T11:56:50.320Z,23.90
2017-09-08T11:59:19.613Z,23.90
2017-09-08T12:01:49.039Z,24.00
2017-09-08T12:04:17.470Z,24.00
2017-09-08T12:06:46.020Z,24.10
2017-09-08T12:09:14.275Z,24.10
2017-09-08T12:11:43.163Z,24.20
2017-09-08T12:14:12.100Z,24.20
2017-09-08T12:16:41.665Z,24.30
2017-09-08T12:19:10.557Z,24.30
2017-09-08T12:21:39.039Z,24.40
2017-09-08T12:24:07.709Z,24.40
2017-09-08T12:26:37.384Z,24.40
2017-09-08T12:29:06.405Z,24.50
2017-09-08T12:31:36.536Z,24.50
2017-09-08T12:34:05.504Z,24.60
2017-09-08T12:36:34.078Z,24.60
2017-09-08T12:39:02.154Z,24.70
2017-09-08T12:41:33.531Z,24.70
2017-09-08T12:44:03.335Z,24.80
2017-09-08T12:46:32.423Z,24.80
2017-09-08T12:49:01.699Z,24.90
2017-09-08T12:51:31.168Z,24.90
2017-09-08T12:54:00.791Z,25.00
2017-09-08T12:56:30.600Z,25.00
2017-09-08T12:59:00.753Z,25.00
2017-09-08T13:01:29.353Z,25.00
2017-09-08T13:03:57.956Z,25.20
2017-09-08T13:06:28.093Z,25.20
2017-09-08T13:08:56.759Z,25.20
2017-09-08T13:11:25.915Z,25.30
2017-09-08T13:13:54.301Z,25.30
2017-09-08T13:16:22.603Z,25.30
2017-09-08T13:18:51.078Z,25.40
2017-09-08T13:21:19.864Z,25.40
2017-09-08T13:23:48.934Z,25.40
2017-09-08T13:26:19.157Z,25.50
2017-09-08T13:28:49.245Z,25.50
2017-09-08T13:31:17.336Z,25.50
2017-09-08T13:33:46.357Z,25.50
2017-09-08T13:36:15.533Z,25.50
2017-09-08T13:38:46.063Z,25.60
2017-09-08T13:41:15.082Z,25.60
2017-09-08T13:43:45.362Z,25.50
2017-09-08T13:46:14.625Z,25.40
2017-09-08T13:48:43.648Z,25.30
2017-09-08T13:51:12.292Z,25.40
2017-09-08T13:53:41.456Z,25.40
2017-09-08T13:56:13.895Z,25.50
2017-09-08T13:58:42.644Z,25.50
2017-09-08T14:01:14.237Z,25.50
2017-09-08T14:03:43.345Z,25.40
2017-09-08T14:06:12.072Z,25.40
2017-09-08T14:08:40.617Z,25.40
2017-09-08T14:11:10.844Z,25.30
2017-09-08T14:13:39.614Z,25.30
2017-09-08T14:16:08.674Z,25.30
2017-09-08T14:18:37.841Z,25.20
2017-09-08T14:21:06.420Z,25.20
2017-09-08T14:23:34.954Z,25.10
2017-09-08T14:26:04.255Z,25.10
2017-09-08T14:28:32.821Z,25.10
2017-09-08T14:31:01.632Z,25.00
2017-09-08T14:33:30.470Z,24.80
2017-09-08T14:35:59.671Z,24.70
2017-09-08T14:38:28.760Z,24.70
2017-09-08T14:40:57.608Z,24.70
2017-09-08T14:43:28.752Z,24.70
2017-09-08T14:45:57.453Z,24.70
2017-09-08T14:48:26.333Z,24.60
2017-09-08T14:50:55.750Z,24.60
2017-09-08T14:53:24.791Z,24.60
2017-09-08T14:55:53.023Z,24.50
2017-09-08T14:58:22.280Z,24.50
2017-09-08T15:00:55.383Z,24.60
2017-09-08T15:03:23.758Z,24.60
2017-09-08T15:05:54.035Z,24.50
2017-09-08T15:08:22.738Z,24.50
2017-09-08T15:10:50.996Z,24.60
2017-09-08T15:13:19.878Z,24.50
2017-09-08T15:15:51.319Z,24.50
2017-09-08T15:18:22.235Z,24.50
2017-09-08T15:20:50.872Z,24.40
2017-09-08T15:26:01.346Z,24.30
2017-09-08T15:28:29.639Z,24.30
2017-09-08T15:30:59.901Z,24.30
2017-09-08T15:33:29.999Z,24.40
2017-09-08T15:35:59.517Z,24.40
2017-09-08T15:38:29.699Z,24.40
2017-09-08T15:40:58.856Z,24.50
2017-09-08T15:43:28.260Z,24.50
2017-09-08T15:45:58.070Z,24.50
2017-09-08T15:48:27.683Z,24.50
2017-09-08T15:50:57.184Z,24.60
2017-09-08T15:53:27.664Z,24.60
2017-09-08T15:55:56.758Z,24.60
2017-09-08T15:58:28.096Z,24.60
2017-09-08T16:00:59.405Z,24.60
2017-09-08T16:03:28.403Z,24.70
2017-09-08T16:05:57.907Z,24.60
2017-09-08T16:08:27.370Z,24.60
2017-09-08T16:10:56.370Z,24.80
2017-09-08T16:13:24.983Z,24.80
2017-09-08T16:15:54.430Z,24.90
2017-09-08T16:18:23.290Z,24.90
2017-09-08T16:20:52.463Z,25.00
2017-09-08T16:23:25.822Z,25.00
2017-09-08T16:25:54.024Z,25.00
2017-09-08T16:28:22.576Z,25.00
2017-09-08T16:30:52.088Z,24.90
2017-09-08T16:33:21.480Z,24.90
2017-09-08T16:35:49.680Z,24.80
2017-09-08T16:38:18.385Z,24.70
2017-09-08T16:40:48.359Z,24.60
2017-09-08T16:43:16.045Z,24.50
2017-09-08T16:45:43.667Z,24.30
2017-09-08T16:48:12.519Z,24.20
2017-09-08T16:50:40.984Z,24.00
2017-09-08T16:53:13.236Z,23.80
2017-09-08T16:55:41.988Z,23.70
2017-09-08T16:58:12.414Z,23.60
2017-09-08T17:03:14.251Z,23.40
2017-09-08T17:05:44.509Z,23.30
2017-09-08T17:08:14.291Z,23.10
2017-09-08T17:10:42.665Z,23.00
2017-09-08T17:13:11.344Z,23.00
2017-09-08T17:15:39.927Z,22.90
2017-09-08T17:18:11.867Z,22.90
2017-09-08T17:20:40.383Z,22.80
2017-09-08T17:23:08.545Z,22.80
2017-09-08T17:25:37.957Z,22.70
2017-09-08T17:28:07.513Z,22.60
2017-09-08T17:30:41.476Z,22.60
2017-09-08T17:33:10.283Z,22.60
2017-09-08T17:35:39.835Z,22.50
2017-09-08T17:38:09.542Z,22.60
2017-09-08T17:40:38.821Z,22.50
2017-09-08T17:43:08.550Z,22.50
2017-09-08T17:45:41.217Z,22.40
2017-09-08T17:48:11.380Z,22.40
2017-09-08T17:50:42.513Z,22.40
2017-09-08T17:53:11.862Z,22.40
2017-09-08T17:58:16.583Z,22.30
2017-09-08T18:00:49.039Z,22.30
2017-09-08T18:03:17.173Z,22.20
2017-09-08T18:05:47.598Z,22.20
2017-09-08T18:08:16.549Z,22.20
2017-09-08T18:10:48.871Z,22.10
2017-09-08T18:13:18.368Z,22.10
2017-09-08T18:15:46.533Z,22.00
2017-09-08T18:20:52.282Z,22.00
2017-09-08T18:23:22.046Z,21.90
2017-09-08T18:25:56.328Z,21.90
2017-09-08T18:28:25.341Z,21.90
2017-09-08T18:30:56.321Z,21.80
2017-09-08T18:33:25.108Z,21.80
2017-09-08T18:35:53.868Z,21.80
2017-09-08T18:38:23.364Z,21.80
2017-09-08T18:41:05.470Z,21.80
2017-09-08T18:43:34.725Z,21.70
2017-09-08T18:46:04.422Z,21.70
2017-09-08T18:48:33.350Z,21.70
2017-09-08T18:51:04.872Z,21.70
2017-09-08T18:53:33.595Z,21.60
2017-09-08T18:56:04.346Z,21.60
2017-09-08T18:58:36.153Z,21.40
2017-09-08T19:01:07.861Z,21.40
2017-09-08T19:03:39.647Z,21.40
2017-09-08T19:06:09.062Z,21.40
2017-09-08T19:08:37.366Z,21.40
2017-09-08T19:11:07.126Z,21.40
2017-09-08T19:13:39.386Z,21.30
2017-09-08T19:16:08.660Z,21.30
2017-09-08T19:18:38.005Z,21.30
2017-09-08T19:21:06.572Z,21.30
2017-09-08T19:23:36.486Z,21.30
2017-09-08T19:26:05.108Z,21.30
2017-09-08T19:28:35.602Z,21.20
2017-09-08T19:31:03.872Z,21.20
2017-09-08T19:33:35.246Z,21.10
2017-09-08T19:36:04.327Z,21.20
2017-09-08T19:38:33.847Z,21.10
2017-09-08T19:41:03.593Z,21.10
2017-09-08T19:43:32.635Z,21.10
2017-09-08T19:46:01.838Z,21.10
2017-09-08T19:48:33.666Z,21.00
2017-09-08T19:51:03.498Z,21.00
2017-09-08T19:53:32.583Z,21.00
2017-09-08T19:56:01.704Z,21.00
2017-09-08T19:58:31.127Z,21.00
2017-09-08T20:00:59.867Z,21.00
2017-09-08T20:03:30.611Z,21.00
2017-09-08T20:15:38.891Z,21.00
2017-09-08T20:18:09.366Z,20.70
2017-09-08T20:20:41.331Z,20.70
2017-09-08T20:23:10.635Z,20.70
2017-09-08T20:25:40.973Z,20.70
2017-09-08T20:28:16.473Z,20.70
2017-09-08T20:30:45.481Z,20.70
2017-09-08T20:33:18.596Z,20.70
2017-09-08T20:35:48.840Z,20.70
2017-09-08T20:38:17.943Z,20.60
2017-09-08T20:40:51.971Z,20.60
2017-09-08T20:43:21.891Z,20.60
2017-09-08T20:45:51.343Z,20.60
2017-09-08T20:48:20.431Z,20.60
2017-09-08T20:50:48.420Z,20.60
2017-09-08T20:53:19.389Z,20.50
2017-09-08T20:55:50.818Z,20.50
2017-09-08T20:58:20.859Z,20.50
2017-09-08T21:00:52.953Z,20.50
2017-09-08T21:03:21.199Z,20.50
2017-09-08T21:05:52.494Z,20.50
2017-09-08T21:08:22.679Z,20.40
2017-09-08T21:10:51.032Z,20.40
2017-09-08T21:13:22.698Z,20.40
2017-09-08T21:15:51.447Z,20.40
2017-09-08T21:18:20.629Z,20.40
2017-09-08T21:20:49.188Z,20.40
2017-09-08T21:23:18.448Z,20.40
2017-09-08T21:25:50.381Z,20.30
2017-09-08T21:28:21.277Z,20.30
2017-09-08T21:30:50.985Z,20.30
2017-09-08T21:33:22.289Z,20.20
2017-09-08T21:35:52.043Z,20.20
2017-09-08T21:38:21.357Z,20.20
2017-09-08T21:40:50.649Z,20.20
2017-09-08T21:43:23.294Z,20.20
2017-09-08T21:45:52.588Z,20.10
2017-09-08T21:48:21.762Z,20.10
2017-09-08T21:50:52.887Z,20.10
2017-09-08T21:53:21.196Z,20.10
2017-09-08T21:55:52.300Z,20.10
2017-09-08T21:58:20.728Z,20.00
2017-09-08T22:00:50.043Z,20.00
2017-09-08T22:03:24.601Z,19.90
2017-09-08T22:05:55.020Z,19.90
2017-09-08T22:08:23.981Z,19.90
2017-09-08T22:10:53.713Z,19.90
2017-09-08T22:13:22.283Z,19.80
2017-09-08T22:15:49.875Z,19.80
2017-09-08T22:18:20.769Z,19.80
2017-09-08T22:20:49.797Z,19.80
2017-09-08T22:23:17.985Z,19.80
2017-09-08T22:25:49.265Z,19.80
2017-09-08T22:28:19.820Z,19.70
2017-09-08T22:30:50.296Z,19.70
2017-09-08T22:33:18.804Z,19.80
2017-09-08T22:35:49.132Z,19.70
2017-09-08T22:38:18.287Z,19.80
2017-09-08T22:40:47.532Z,19.70
2017-09-08T22:43:17.225Z,19.70
2017-09-08T22:45:49.013Z,19.70
2017-09-08T22:48:17.174Z,19.60
2017-09-08T22:50:45.786Z,19.60
2017-09-08T22:53:14.414Z,19.60
2017-09-08T22:55:44.040Z,19.50
2017-09-08T22:58:14.386Z,19.40
2017-09-08T23:00:44.164Z,19.50
2017-09-08T23:03:13.378Z,19.50
2017-09-08T23:05:42.591Z,19.50
2017-09-08T23:08:12.992Z,19.40
2017-09-08T23:10:43.636Z,19.40
2017-09-08T23:13:13.880Z,19.40
2017-09-08T23:15:42.226Z,19.40
2017-09-08T23:18:10.599Z,19.40
2017-09-08T23:20:40.263Z,19.40
2017-09-08T23:23:09.479Z,19.30
2017-09-08T23:25:38.817Z,19.30
2017-09-08T23:28:08.229Z,19.30
2017-09-08T23:30:37.070Z,19.30
2017-09-08T23:33:06.648Z,19.30
2017-09-08T23:35:35.973Z,19.20
2017-09-08T23:40:58.454Z,19.20
2017-09-08T23:43:27.708Z,19.20
2017-09-08T23:46:00.592Z,19.20
2017-09-08T23:48:28.328Z,19.20
2017-09-08T23:50:56.634Z,19.20
2017-09-08T23:53:26.532Z,19.10
2017-09-08T23:55:56.847Z,19.20
2017-09-08T23:58:26.108Z,19.20
